sensor_id;sensor_type;location;lat;lon;timestamp;P1;durP1;ratioP1;P2;durP2;ratioP2
13741;SDS011;8461;52.356;10.704;2022-12-24T00:00:18;2.93;;;2.20;;
13741;SDS011;8461;52.356;10.704;2022-12-24T00:02:43;2.97;;;2.27;;
13741;SDS011;8461;52.356;10.704;2022-12-24T00:05:09;2.40;;;2.20;;
13741;SDS011;8461;52.356;10.704;2022-12-24T00:07:35;3.30;;;2.60;;
13741;SDS011;8461;52.356;10.704;2022-12-24T00:10:00;2.97;;;1.73;;
13741;SDS011;8461;52.356;10.704;2022-12-24T00:12:26;2.27;;;1.90;;
13741;SDS011;8461;52.356;10.704;2022-12-24T00:14:52;3.37;;;2.57;;
13741;SDS011;8461;52.356;10.704;2022-12-24T00:17:17;3.53;;;2.40;;
13741;SDS011;8461;52.356;10.704;2022-12-24T00:19:43;4.47;;;3.00;;
13741;SDS011;8461;52.356;10.704;2022-12-24T00:22:09;3.30;;;2.40;;
13741;SDS011;8461;52.356;10.704;2022-12-24T00:24:34;2.50;;;2.30;;
13741;SDS011;8461;52.356;10.704;2022-12-24T00:27:00;6.80;;;4.30;;
13741;SDS011;8461;52.356;10.704;2022-12-24T00:29:27;3.43;;;2.60;;
13741;SDS011;8461;52.356;10.704;2022-12-24T00:31:53;7.87;;;5.43;;
13741;SDS011;8461;52.356;10.704;2022-12-24T00:34:18;6.30;;;4.03;;
13741;SDS011;8461;52.356;10.704;2022-12-24T00:36:44;3.07;;;2.23;;
13741;SDS011;8461;52.356;10.704;2022-12-24T00:39:09;3.73;;;2.50;;
13741;SDS011;8461;52.356;10.704;2022-12-24T00:41:35;4.10;;;3.23;;
13741;SDS011;8461;52.356;10.704;2022-12-24T00:44:05;3.37;;;2.57;;
13741;SDS011;8461;52.356;10.704;2022-12-24T00:46:34;3.60;;;2.63;;
13741;SDS011;8461;52.356;10.704;2022-12-24T00:49:00;2.60;;;2.10;;
13741;SDS011;8461;52.356;10.704;2022-12-24T00:51:27;2.03;;;1.83;;
13741;SDS011;8461;52.356;10.704;2022-12-24T00:53:52;12.60;;;5.97;;
13741;SDS011;8461;52.356;10.704;2022-12-24T00:56:18;14.20;;;6.67;;
13741;SDS011;8461;52.356;10.704;2022-12-24T00:58:44;13.07;;;6.23;;
13741;SDS011;8461;52.356;10.704;2022-12-24T01:01:10;30.63;;;15.93;;
13741;SDS011;8461;52.356;10.704;2022-12-24T01:03:36;9.00;;;6.00;;
13741;SDS011;8461;52.356;10.704;2022-12-24T01:08:27;7.20;;;5.03;;
13741;SDS011;8461;52.356;10.704;2022-12-24T01:10:53;5.33;;;2.87;;
13741;SDS011;8461;52.356;10.704;2022-12-24T01:13:18;7.73;;;4.60;;
13741;SDS011;8461;52.356;10.704;2022-12-24T01:15:44;5.77;;;4.10;;
13741;SDS011;8461;52.356;10.704;2022-12-24T01:18:09;2.30;;;1.90;;
13741;SDS011;8461;52.356;10.704;2022-12-24T01:20:35;2.93;;;2.27;;
13741;SDS011;8461;52.356;10.704;2022-12-24T01:23:00;2.73;;;1.60;;
13741;SDS011;8461;52.356;10.704;2022-12-24T01:25:26;8.03;;;5.03;;
13741;SDS011;8461;52.356;10.704;2022-12-24T01:27:52;10.23;;;5.60;;
13741;SDS011;8461;52.356;10.704;2022-12-24T01:30:17;5.60;;;3.50;;
13741;SDS011;8461;52.356;10.704;2022-12-24T01:32:43;5.83;;;4.30;;
13741;SDS011;8461;52.356;10.704;2022-12-24T01:35:08;5.83;;;3.70;;
13741;SDS011;8461;52.356;10.704;2022-12-24T01:37:34;24.47;;;13.70;;
13741;SDS011;8461;52.356;10.704;2022-12-24T01:40:00;7.93;;;4.70;;
13741;SDS011;8461;52.356;10.704;2022-12-24T01:42:55;3.13;;;2.13;;
13741;SDS011;8461;52.356;10.704;2022-12-24T01:48:53;22.93;;;14.27;;
13741;SDS011;8461;52.356;10.704;2022-12-24T01:53:36;13.27;;;8.80;;
13741;SDS011;8461;52.356;10.704;2022-12-24T01:56:03;12.50;;;7.93;;
13741;SDS011;8461;52.356;10.704;2022-12-24T01:58:30;10.33;;;5.97;;
13741;SDS011;8461;52.356;10.704;2022-12-24T02:00:58;5.63;;;4.23;;
13741;SDS011;8461;52.356;10.704;2022-12-24T02:03:24;18.40;;;11.87;;
13741;SDS011;8461;52.356;10.704;2022-12-24T02:05:51;13.60;;;7.87;;
13741;SDS011;8461;52.356;10.704;2022-12-24T02:08:18;13.63;;;7.87;;
13741;SDS011;8461;52.356;10.704;2022-12-24T02:10:44;11.33;;;8.37;;
13741;SDS011;8461;52.356;10.704;2022-12-24T02:13:11;6.07;;;3.83;;
13741;SDS011;8461;52.356;10.704;2022-12-24T02:18:48;5.93;;;4.23;;
13741;SDS011;8461;52.356;10.704;2022-12-24T02:21:50;4.67;;;3.67;;
13741;SDS011;8461;52.356;10.704;2022-12-24T02:24:31;4.83;;;2.67;;
13741;SDS011;8461;52.356;10.704;2022-12-24T02:27:32;3.50;;;2.53;;
13741;SDS011;8461;52.356;10.704;2022-12-24T02:30:18;3.57;;;2.73;;
13741;SDS011;8461;52.356;10.704;2022-12-24T02:32:51;5.50;;;3.63;;
13741;SDS011;8461;52.356;10.704;2022-12-24T02:35:43;7.13;;;4.77;;
13741;SDS011;8461;52.356;10.704;2022-12-24T02:38:28;3.47;;;2.67;;
13741;SDS011;8461;52.356;10.704;2022-12-24T02:40:59;3.90;;;2.70;;
13741;SDS011;8461;52.356;10.704;2022-12-24T02:43:31;3.03;;;2.60;;
13741;SDS011;8461;52.356;10.704;2022-12-24T02:46:01;6.10;;;3.73;;
13741;SDS011;8461;52.356;10.704;2022-12-24T02:48:33;3.60;;;2.77;;
13741;SDS011;8461;52.356;10.704;2022-12-24T02:51:03;2.97;;;2.63;;
13741;SDS011;8461;52.356;10.704;2022-12-24T02:53:30;3.17;;;2.60;;
13741;SDS011;8461;52.356;10.704;2022-12-24T02:56:16;3.77;;;2.80;;
13741;SDS011;8461;52.356;10.704;2022-12-24T02:59:18;4.17;;;3.27;;
13741;SDS011;8461;52.356;10.704;2022-12-24T03:01:53;6.27;;;4.03;;
13741;SDS011;8461;52.356;10.704;2022-12-24T03:07:05;7.10;;;4.73;;
13741;SDS011;8461;52.356;10.704;2022-12-24T03:10:06;8.37;;;5.27;;
13741;SDS011;8461;52.356;10.704;2022-12-24T03:12:51;17.97;;;9.23;;
13741;SDS011;8461;52.356;10.704;2022-12-24T03:15:25;6.37;;;4.17;;
13741;SDS011;8461;52.356;10.704;2022-12-24T03:17:52;7.83;;;4.60;;
13741;SDS011;8461;52.356;10.704;2022-12-24T03:20:25;5.37;;;3.63;;
13741;SDS011;8461;52.356;10.704;2022-12-24T03:23:05;7.00;;;5.10;;
13741;SDS011;8461;52.356;10.704;2022-12-24T03:25:31;7.53;;;5.63;;
13741;SDS011;8461;52.356;10.704;2022-12-24T03:27:59;6.40;;;4.73;;
13741;SDS011;8461;52.356;10.704;2022-12-24T03:30:26;5.00;;;3.80;;
13741;SDS011;8461;52.356;10.704;2022-12-24T03:32:52;3.37;;;2.50;;
13741;SDS011;8461;52.356;10.704;2022-12-24T03:35:18;2.83;;;2.30;;
13741;SDS011;8461;52.356;10.704;2022-12-24T03:37:43;2.00;;;1.80;;
13741;SDS011;8461;52.356;10.704;2022-12-24T03:40:09;2.53;;;2.20;;
13741;SDS011;8461;52.356;10.704;2022-12-24T03:42:35;2.47;;;1.97;;
13741;SDS011;8461;52.356;10.704;2022-12-24T03:45:00;2.73;;;2.20;;
13741;SDS011;8461;52.356;10.704;2022-12-24T03:47:26;2.13;;;1.83;;
13741;SDS011;8461;52.356;10.704;2022-12-24T03:49:51;3.47;;;2.23;;
13741;SDS011;8461;52.356;10.704;2022-12-24T03:52:17;2.40;;;2.20;;
13741;SDS011;8461;52.356;10.704;2022-12-24T03:54:43;1.67;;;1.47;;
13741;SDS011;8461;52.356;10.704;2022-12-24T03:57:08;2.30;;;1.90;;
13741;SDS011;8461;52.356;10.704;2022-12-24T03:59:34;2.57;;;1.93;;
13741;SDS011;8461;52.356;10.704;2022-12-24T04:01:59;2.57;;;2.10;;
13741;SDS011;8461;52.356;10.704;2022-12-24T04:04:25;2.33;;;1.80;;
13741;SDS011;8461;52.356;10.704;2022-12-24T04:06:50;2.60;;;2.10;;
13741;SDS011;8461;52.356;10.704;2022-12-24T04:09:16;2.57;;;1.90;;
13741;SDS011;8461;52.356;10.704;2022-12-24T04:11:42;2.63;;;2.17;;
13741;SDS011;8461;52.356;10.704;2022-12-24T04:14:07;2.87;;;2.30;;
13741;SDS011;8461;52.356;10.704;2022-12-24T04:16:33;2.07;;;1.80;;
13741;SDS011;8461;52.356;10.704;2022-12-24T04:18:58;2.40;;;2.00;;
13741;SDS011;8461;52.356;10.704;2022-12-24T04:21:24;2.70;;;2.10;;
13741;SDS011;8461;52.356;10.704;2022-12-24T04:23:49;2.50;;;2.20;;
13741;SDS011;8461;52.356;10.704;2022-12-24T04:26:15;2.67;;;2.13;;
13741;SDS011;8461;52.356;10.704;2022-12-24T04:28:41;3.73;;;2.63;;
13741;SDS011;8461;52.356;10.704;2022-12-24T04:31:08;3.27;;;2.90;;
13741;SDS011;8461;52.356;10.704;2022-12-24T04:33:36;6.03;;;3.97;;
13741;SDS011;8461;52.356;10.704;2022-12-24T04:36:03;3.83;;;3.00;;
13741;SDS011;8461;52.356;10.704;2022-12-24T04:38:30;3.87;;;3.27;;
13741;SDS011;8461;52.356;10.704;2022-12-24T04:40:57;6.47;;;3.07;;
13741;SDS011;8461;52.356;10.704;2022-12-24T04:43:27;3.60;;;3.10;;
13741;SDS011;8461;52.356;10.704;2022-12-24T04:45:53;4.73;;;2.87;;
13741;SDS011;8461;52.356;10.704;2022-12-24T04:48:19;6.70;;;3.63;;
13741;SDS011;8461;52.356;10.704;2022-12-24T04:50:45;10.63;;;6.40;;
13741;SDS011;8461;52.356;10.704;2022-12-24T04:53:10;5.47;;;3.50;;
13741;SDS011;8461;52.356;10.704;2022-12-24T04:55:42;8.70;;;4.43;;
13741;SDS011;8461;52.356;10.704;2022-12-24T04:58:11;8.80;;;3.50;;
13741;SDS011;8461;52.356;10.704;2022-12-24T05:00:37;7.03;;;3.73;;
13741;SDS011;8461;52.356;10.704;2022-12-24T05:03:03;7.57;;;2.90;;
13741;SDS011;8461;52.356;10.704;2022-12-24T05:05:29;10.53;;;3.33;;
13741;SDS011;8461;52.356;10.704;2022-12-24T05:07:54;11.77;;;3.77;;
13741;SDS011;8461;52.356;10.704;2022-12-24T05:10:20;13.90;;;6.33;;
13741;SDS011;8461;52.356;10.704;2022-12-24T05:12:46;8.23;;;2.57;;
13741;SDS011;8461;52.356;10.704;2022-12-24T05:15:11;15.37;;;5.97;;
13741;SDS011;8461;52.356;10.704;2022-12-24T05:17:37;8.60;;;2.50;;
13741;SDS011;8461;52.356;10.704;2022-12-24T05:20:02;5.43;;;3.90;;
13741;SDS011;8461;52.356;10.704;2022-12-24T05:22:28;4.77;;;2.43;;
13741;SDS011;8461;52.356;10.704;2022-12-24T05:25:13;4.07;;;2.87;;
13741;SDS011;8461;52.356;10.704;2022-12-24T05:27:57;3.60;;;2.20;;
13741;SDS011;8461;52.356;10.704;2022-12-24T05:30:22;5.60;;;2.57;;
13741;SDS011;8461;52.356;10.704;2022-12-24T05:32:48;6.13;;;2.70;;
13741;SDS011;8461;52.356;10.704;2022-12-24T05:35:13;4.57;;;2.73;;
13741;SDS011;8461;52.356;10.704;2022-12-24T05:37:39;6.53;;;2.83;;
13741;SDS011;8461;52.356;10.704;2022-12-24T05:40:04;4.40;;;2.60;;
13741;SDS011;8461;52.356;10.704;2022-12-24T05:42:30;6.53;;;2.80;;
13741;SDS011;8461;52.356;10.704;2022-12-24T05:44:56;6.37;;;3.30;;
13741;SDS011;8461;52.356;10.704;2022-12-24T05:47:21;8.17;;;2.90;;
13741;SDS011;8461;52.356;10.704;2022-12-24T05:49:47;5.30;;;2.97;;
13741;SDS011;8461;52.356;10.704;2022-12-24T05:52:12;6.10;;;2.50;;
13741;SDS011;8461;52.356;10.704;2022-12-24T05:54:38;5.83;;;2.57;;
13741;SDS011;8461;52.356;10.704;2022-12-24T05:57:03;7.43;;;2.90;;
13741;SDS011;8461;52.356;10.704;2022-12-24T05:59:29;6.00;;;2.57;;
13741;SDS011;8461;52.356;10.704;2022-12-24T06:01:54;8.70;;;2.97;;
13741;SDS011;8461;52.356;10.704;2022-12-24T06:04:20;4.30;;;3.20;;
13741;SDS011;8461;52.356;10.704;2022-12-24T06:06:46;9.80;;;2.87;;
13741;SDS011;8461;52.356;10.704;2022-12-24T06:09:11;8.57;;;2.27;;
13741;SDS011;8461;52.356;10.704;2022-12-24T06:11:37;6.50;;;2.20;;
13741;SDS011;8461;52.356;10.704;2022-12-24T06:14:02;9.27;;;2.20;;
13741;SDS011;8461;52.356;10.704;2022-12-24T06:16:28;9.23;;;2.23;;
13741;SDS011;8461;52.356;10.704;2022-12-24T06:18:53;8.03;;;2.17;;
13741;SDS011;8461;52.356;10.704;2022-12-24T06:21:19;14.03;;;2.80;;
13741;SDS011;8461;52.356;10.704;2022-12-24T06:23:45;8.23;;;2.10;;
13741;SDS011;8461;52.356;10.704;2022-12-24T06:26:12;3.97;;;1.90;;
13741;SDS011;8461;52.356;10.704;2022-12-24T06:28:40;8.40;;;2.40;;
13741;SDS011;8461;52.356;10.704;2022-12-24T06:31:06;7.07;;;2.67;;
13741;SDS011;8461;52.356;10.704;2022-12-24T06:33:36;9.43;;;3.03;;
13741;SDS011;8461;52.356;10.704;2022-12-24T06:36:04;8.47;;;2.20;;
13741;SDS011;8461;52.356;10.704;2022-12-24T06:38:31;9.70;;;2.07;;
13741;SDS011;8461;52.356;10.704;2022-12-24T06:40:57;6.27;;;2.20;;
13741;SDS011;8461;52.356;10.704;2022-12-24T06:43:23;14.33;;;4.07;;
13741;SDS011;8461;52.356;10.704;2022-12-24T06:45:48;8.10;;;2.07;;
13741;SDS011;8461;52.356;10.704;2022-12-24T06:48:14;10.57;;;2.40;;
13741;SDS011;8461;52.356;10.704;2022-12-24T06:50:40;10.87;;;2.53;;
13741;SDS011;8461;52.356;10.704;2022-12-24T06:53:06;6.37;;;2.17;;
13741;SDS011;8461;52.356;10.704;2022-12-24T06:55:31;7.30;;;2.37;;
13741;SDS011;8461;52.356;10.704;2022-12-24T06:57:57;7.37;;;2.27;;
13741;SDS011;8461;52.356;10.704;2022-12-24T07:00:23;6.73;;;2.43;;
13741;SDS011;8461;52.356;10.704;2022-12-24T07:02:48;13.33;;;2.77;;
13741;SDS011;8461;52.356;10.704;2022-12-24T07:05:14;9.87;;;2.60;;
13741;SDS011;8461;52.356;10.704;2022-12-24T07:07:40;9.63;;;2.90;;
13741;SDS011;8461;52.356;10.704;2022-12-24T07:10:09;11.03;;;2.70;;
13741;SDS011;8461;52.356;10.704;2022-12-24T07:12:36;16.00;;;3.93;;
13741;SDS011;8461;52.356;10.704;2022-12-24T07:15:02;16.20;;;4.80;;
13741;SDS011;8461;52.356;10.704;2022-12-24T07:17:28;18.27;;;4.77;;
13741;SDS011;8461;52.356;10.704;2022-12-24T07:19:53;26.03;;;5.60;;
13741;SDS011;8461;52.356;10.704;2022-12-24T07:22:19;20.87;;;5.33;;
13741;SDS011;8461;52.356;10.704;2022-12-24T07:24:44;18.90;;;4.53;;
13741;SDS011;8461;52.356;10.704;2022-12-24T07:27:10;20.83;;;5.90;;
13741;SDS011;8461;52.356;10.704;2022-12-24T07:29:36;15.00;;;4.83;;
13741;SDS011;8461;52.356;10.704;2022-12-24T07:32:01;18.07;;;5.30;;
13741;SDS011;8461;52.356;10.704;2022-12-24T07:34:27;25.33;;;7.27;;
13741;SDS011;8461;52.356;10.704;2022-12-24T07:36:52;16.57;;;5.23;;
13741;SDS011;8461;52.356;10.704;2022-12-24T07:39:18;29.47;;;12.60;;
13741;SDS011;8461;52.356;10.704;2022-12-24T07:41:43;21.90;;;6.13;;
13741;SDS011;8461;52.356;10.704;2022-12-24T07:44:12;22.03;;;6.77;;
13741;SDS011;8461;52.356;10.704;2022-12-24T07:46:38;21.70;;;5.63;;
13741;SDS011;8461;52.356;10.704;2022-12-24T07:49:05;25.57;;;7.07;;
13741;SDS011;8461;52.356;10.704;2022-12-24T07:51:30;24.80;;;6.47;;
13741;SDS011;8461;52.356;10.704;2022-12-24T07:53:56;31.77;;;11.83;;
13741;SDS011;8461;52.356;10.704;2022-12-24T07:56:22;26.57;;;8.97;;
13741;SDS011;8461;52.356;10.704;2022-12-24T07:58:49;29.27;;;7.17;;
13741;SDS011;8461;52.356;10.704;2022-12-24T08:01:15;22.77;;;7.67;;
13741;SDS011;8461;52.356;10.704;2022-12-24T08:03:41;23.63;;;6.80;;
13741;SDS011;8461;52.356;10.704;2022-12-24T08:06:06;21.43;;;5.80;;
13741;SDS011;8461;52.356;10.704;2022-12-24T08:08:33;27.20;;;6.53;;
13741;SDS011;8461;52.356;10.704;2022-12-24T08:11:02;28.43;;;6.63;;
13741;SDS011;8461;52.356;10.704;2022-12-24T08:13:29;19.30;;;6.23;;
13741;SDS011;8461;52.356;10.704;2022-12-24T08:15:55;28.67;;;6.57;;
13741;SDS011;8461;52.356;10.704;2022-12-24T08:18:21;29.90;;;6.57;;
13741;SDS011;8461;52.356;10.704;2022-12-24T08:20:47;28.57;;;6.70;;
13741;SDS011;8461;52.356;10.704;2022-12-24T08:23:12;34.03;;;9.20;;
13741;SDS011;8461;52.356;10.704;2022-12-24T08:25:41;18.97;;;6.00;;
13741;SDS011;8461;52.356;10.704;2022-12-24T08:28:07;29.23;;;6.10;;
13741;SDS011;8461;52.356;10.704;2022-12-24T08:30:32;26.37;;;5.63;;
13741;SDS011;8461;52.356;10.704;2022-12-24T08:32:58;18.97;;;5.37;;
13741;SDS011;8461;52.356;10.704;2022-12-24T08:35:23;20.30;;;5.57;;
13741;SDS011;8461;52.356;10.704;2022-12-24T08:37:49;26.07;;;6.03;;
13741;SDS011;8461;52.356;10.704;2022-12-24T08:40:14;21.13;;;4.83;;
13741;SDS011;8461;52.356;10.704;2022-12-24T08:42:40;16.17;;;5.57;;
13741;SDS011;8461;52.356;10.704;2022-12-24T08:45:06;21.97;;;5.60;;
13741;SDS011;8461;52.356;10.704;2022-12-24T08:47:32;24.93;;;6.90;;
13741;SDS011;8461;52.356;10.704;2022-12-24T08:49:57;16.60;;;4.77;;
13741;SDS011;8461;52.356;10.704;2022-12-24T08:52:23;22.10;;;5.33;;
13741;SDS011;8461;52.356;10.704;2022-12-24T08:54:48;23.80;;;6.17;;
13741;SDS011;8461;52.356;10.704;2022-12-24T08:57:14;29.80;;;8.03;;
13741;SDS011;8461;52.356;10.704;2022-12-24T08:59:39;24.27;;;7.97;;
13741;SDS011;8461;52.356;10.704;2022-12-24T09:02:05;30.43;;;9.43;;
13741;SDS011;8461;52.356;10.704;2022-12-24T09:04:30;21.80;;;7.17;;
13741;SDS011;8461;52.356;10.704;2022-12-24T09:06:56;26.37;;;7.77;;
13741;SDS011;8461;52.356;10.704;2022-12-24T09:09:21;19.23;;;5.33;;
13741;SDS011;8461;52.356;10.704;2022-12-24T09:11:47;21.93;;;8.27;;
13741;SDS011;8461;52.356;10.704;2022-12-24T09:14:12;19.97;;;4.83;;
13741;SDS011;8461;52.356;10.704;2022-12-24T09:16:38;22.90;;;7.07;;
13741;SDS011;8461;52.356;10.704;2022-12-24T09:19:03;17.00;;;6.00;;
13741;SDS011;8461;52.356;10.704;2022-12-24T09:21:29;20.17;;;6.43;;
13741;SDS011;8461;52.356;10.704;2022-12-24T09:23:55;19.13;;;5.47;;
13741;SDS011;8461;52.356;10.704;2022-12-24T09:26:23;29.50;;;6.80;;
13741;SDS011;8461;52.356;10.704;2022-12-24T09:28:50;18.13;;;4.97;;
13741;SDS011;8461;52.356;10.704;2022-12-24T09:31:16;20.80;;;5.07;;
13741;SDS011;8461;52.356;10.704;2022-12-24T09:33:43;23.10;;;5.20;;
13741;SDS011;8461;52.356;10.704;2022-12-24T09:36:10;20.37;;;5.03;;
13741;SDS011;8461;52.356;10.704;2022-12-24T09:38:36;22.67;;;5.83;;
13741;SDS011;8461;52.356;10.704;2022-12-24T09:41:14;16.80;;;4.67;;
13741;SDS011;8461;52.356;10.704;2022-12-24T09:43:54;15.70;;;4.63;;
13741;SDS011;8461;52.356;10.704;2022-12-24T09:46:29;24.57;;;6.13;;
13741;SDS011;8461;52.356;10.704;2022-12-24T09:49:09;23.60;;;5.33;;
13741;SDS011;8461;52.356;10.704;2022-12-24T09:51:43;22.07;;;5.17;;
13741;SDS011;8461;52.356;10.704;2022-12-24T09:54:14;23.93;;;5.40;;
13741;SDS011;8461;52.356;10.704;2022-12-24T09:56:48;16.90;;;4.80;;
13741;SDS011;8461;52.356;10.704;2022-12-24T09:59:18;26.67;;;5.67;;
13741;SDS011;8461;52.356;10.704;2022-12-24T10:01:47;18.27;;;5.07;;
13741;SDS011;8461;52.356;10.704;2022-12-24T10:04:16;10.30;;;4.70;;
13741;SDS011;8461;52.356;10.704;2022-12-24T10:06:46;21.23;;;5.80;;
13741;SDS011;8461;52.356;10.704;2022-12-24T10:12:02;18.17;;;4.83;;
13741;SDS011;8461;52.356;10.704;2022-12-24T10:14:42;25.47;;;5.27;;
13741;SDS011;8461;52.356;10.704;2022-12-24T10:22:41;17.20;;;6.07;;
13741;SDS011;8461;52.356;10.704;2022-12-24T10:25:22;16.17;;;5.20;;
13741;SDS011;8461;52.356;10.704;2022-12-24T10:27:59;22.63;;;6.23;;
13741;SDS011;8461;52.356;10.704;2022-12-24T10:30:29;25.20;;;5.30;;
13741;SDS011;8461;52.356;10.704;2022-12-24T10:32:55;20.30;;;5.80;;
13741;SDS011;8461;52.356;10.704;2022-12-24T10:35:22;17.07;;;5.00;;
13741;SDS011;8461;52.356;10.704;2022-12-24T10:37:53;20.80;;;6.43;;
13741;SDS011;8461;52.356;10.704;2022-12-24T10:40:28;22.23;;;6.13;;
13741;SDS011;8461;52.356;10.704;2022-12-24T10:42:59;13.93;;;5.53;;
13741;SDS011;8461;52.356;10.704;2022-12-24T10:45:26;18.47;;;5.93;;
13741;SDS011;8461;52.356;10.704;2022-12-24T10:48:01;24.43;;;6.03;;
13741;SDS011;8461;52.356;10.704;2022-12-24T10:50:33;23.43;;;5.87;;
13741;SDS011;8461;52.356;10.704;2022-12-24T10:53:05;17.83;;;5.43;;
13741;SDS011;8461;52.356;10.704;2022-12-24T10:55:38;21.03;;;5.63;;
13741;SDS011;8461;52.356;10.704;2022-12-24T10:58:05;20.00;;;6.27;;
13741;SDS011;8461;52.356;10.704;2022-12-24T11:00:37;17.13;;;6.13;;
13741;SDS011;8461;52.356;10.704;2022-12-24T11:03:05;21.50;;;5.83;;
13741;SDS011;8461;52.356;10.704;2022-12-24T11:05:37;21.47;;;5.70;;
13741;SDS011;8461;52.356;10.704;2022-12-24T11:08:14;22.10;;;6.03;;
13741;SDS011;8461;52.356;10.704;2022-12-24T11:10:43;16.63;;;5.07;;
13741;SDS011;8461;52.356;10.704;2022-12-24T11:13:27;13.47;;;4.60;;
13741;SDS011;8461;52.356;10.704;2022-12-24T11:16:03;10.07;;;4.13;;
13741;SDS011;8461;52.356;10.704;2022-12-24T11:18:45;13.23;;;4.63;;
13741;SDS011;8461;52.356;10.704;2022-12-24T11:21:20;13.37;;;4.97;;
13741;SDS011;8461;52.356;10.704;2022-12-24T11:24:01;17.03;;;5.07;;
13741;SDS011;8461;52.356;10.704;2022-12-24T11:26:43;15.67;;;5.10;;
13741;SDS011;8461;52.356;10.704;2022-12-24T11:29:14;15.40;;;4.87;;
13741;SDS011;8461;52.356;10.704;2022-12-24T11:31:43;17.17;;;5.07;;
13741;SDS011;8461;52.356;10.704;2022-12-24T11:34:17;16.67;;;5.07;;
13741;SDS011;8461;52.356;10.704;2022-12-24T11:36:56;17.00;;;4.83;;
13741;SDS011;8461;52.356;10.704;2022-12-24T11:39:38;11.57;;;4.70;;
13741;SDS011;8461;52.356;10.704;2022-12-24T11:42:05;18.60;;;5.10;;
13741;SDS011;8461;52.356;10.704;2022-12-24T11:44:31;16.50;;;5.50;;
13741;SDS011;8461;52.356;10.704;2022-12-24T11:46:57;17.03;;;5.40;;
13741;SDS011;8461;52.356;10.704;2022-12-24T11:49:27;13.10;;;5.30;;
13741;SDS011;8461;52.356;10.704;2022-12-24T11:51:59;13.80;;;5.10;;
13741;SDS011;8461;52.356;10.704;2022-12-24T11:54:30;13.37;;;5.83;;
13741;SDS011;8461;52.356;10.704;2022-12-24T11:57:01;12.63;;;5.50;;
13741;SDS011;8461;52.356;10.704;2022-12-24T11:59:32;15.07;;;5.90;;
13741;SDS011;8461;52.356;10.704;2022-12-24T12:04:58;19.67;;;5.90;;
13741;SDS011;8461;52.356;10.704;2022-12-24T12:07:29;17.37;;;6.23;;
13741;SDS011;8461;52.356;10.704;2022-12-24T12:10:02;13.77;;;6.00;;
13741;SDS011;8461;52.356;10.704;2022-12-24T12:12:33;14.07;;;6.00;;
13741;SDS011;8461;52.356;10.704;2022-12-24T12:15:15;16.93;;;5.77;;
13741;SDS011;8461;52.356;10.704;2022-12-24T12:17:54;14.97;;;5.37;;
13741;SDS011;8461;52.356;10.704;2022-12-24T12:20:45;15.93;;;5.03;;
13741;SDS011;8461;52.356;10.704;2022-12-24T12:23:16;17.73;;;5.73;;
13741;SDS011;8461;52.356;10.704;2022-12-24T12:25:51;12.07;;;5.20;;
13741;SDS011;8461;52.356;10.704;2022-12-24T12:35:03;13.47;;;5.33;;
13741;SDS011;8461;52.356;10.704;2022-12-24T12:37:07;16.10;;;5.57;;
13741;SDS011;8461;52.356;10.704;2022-12-24T12:39:55;21.23;;;6.33;;
13741;SDS011;8461;52.356;10.704;2022-12-24T12:53:06;19.67;;;4.60;;
13741;SDS011;8461;52.356;10.704;2022-12-24T12:58:24;11.93;;;4.83;;
13741;SDS011;8461;52.356;10.704;2022-12-24T13:00:57;16.00;;;5.07;;
13741;SDS011;8461;52.356;10.704;2022-12-24T13:22:35;11.03;;;4.70;;
13741;SDS011;8461;52.356;10.704;2022-12-24T13:25:01;13.60;;;4.93;;
13741;SDS011;8461;52.356;10.704;2022-12-24T13:27:28;12.93;;;5.03;;
13741;SDS011;8461;52.356;10.704;2022-12-24T13:30:00;13.23;;;5.30;;
13741;SDS011;8461;52.356;10.704;2022-12-24T13:32:39;13.77;;;4.67;;
13741;SDS011;8461;52.356;10.704;2022-12-24T13:37:46;14.97;;;4.60;;
13741;SDS011;8461;52.356;10.704;2022-12-24T13:40:16;8.70;;;4.50;;
13741;SDS011;8461;52.356;10.704;2022-12-24T13:50:48;11.10;;;4.30;;
13741;SDS011;8461;52.356;10.704;2022-12-24T13:56:06;11.50;;;4.30;;
13741;SDS011;8461;52.356;10.704;2022-12-24T13:58:46;11.00;;;3.57;;
13741;SDS011;8461;52.356;10.704;2022-12-24T14:01:14;8.47;;;3.40;;
13741;SDS011;8461;52.356;10.704;2022-12-24T14:03:44;9.00;;;3.13;;
13741;SDS011;8461;52.356;10.704;2022-12-24T14:06:21;5.97;;;2.40;;
13741;SDS011;8461;52.356;10.704;2022-12-24T14:08:49;8.83;;;3.30;;
13741;SDS011;8461;52.356;10.704;2022-12-24T14:11:23;6.70;;;2.77;;
13741;SDS011;8461;52.356;10.704;2022-12-24T14:14:00;4.13;;;2.00;;
13741;SDS011;8461;52.356;10.704;2022-12-24T14:16:41;6.40;;;2.40;;
13741;SDS011;8461;52.356;10.704;2022-12-24T14:24:52;8.77;;;1.90;;
13741;SDS011;8461;52.356;10.704;2022-12-24T14:27:27;5.83;;;2.00;;
13741;SDS011;8461;52.356;10.704;2022-12-24T14:32:45;8.63;;;2.90;;
13741;SDS011;8461;52.356;10.704;2022-12-24T14:37:40;4.20;;;1.70;;
13741;SDS011;8461;52.356;10.704;2022-12-24T14:40:20;7.70;;;3.30;;
13741;SDS011;8461;52.356;10.704;2022-12-24T14:45:41;10.50;;;4.03;;
13741;SDS011;8461;52.356;10.704;2022-12-24T14:55:48;4.70;;;1.40;;
13741;SDS011;8461;52.356;10.704;2022-12-24T15:00:46;3.47;;;1.30;;
13741;SDS011;8461;52.356;10.704;2022-12-24T15:03:13;2.97;;;1.20;;
13741;SDS011;8461;52.356;10.704;2022-12-24T15:05:40;2.87;;;1.10;;
13741;SDS011;8461;52.356;10.704;2022-12-24T15:08:07;2.13;;;0.80;;
13741;SDS011;8461;52.356;10.704;2022-12-24T15:10:40;15.83;;;10.77;;
13741;SDS011;8461;52.356;10.704;2022-12-24T15:15:50;2.77;;;0.80;;
13741;SDS011;8461;52.356;10.704;2022-12-24T15:18:19;0.70;;;0.40;;
13741;SDS011;8461;52.356;10.704;2022-12-24T15:20:50;1.53;;;0.50;;
13741;SDS011;8461;52.356;10.704;2022-12-24T15:23:18;8.37;;;6.50;;
13741;SDS011;8461;52.356;10.704;2022-12-24T15:25:46;1.20;;;0.43;;
13741;SDS011;8461;52.356;10.704;2022-12-24T15:28:19;3.07;;;2.00;;
13741;SDS011;8461;52.356;10.704;2022-12-24T15:30:47;5.03;;;1.27;;
13741;SDS011;8461;52.356;10.704;2022-12-24T15:33:33;5.17;;;1.03;;
13741;SDS011;8461;52.356;10.704;2022-12-24T15:36:00;3.00;;;1.13;;
13741;SDS011;8461;52.356;10.704;2022-12-24T15:38:29;3.70;;;1.93;;
13741;SDS011;8461;52.356;10.704;2022-12-24T15:40:58;3.13;;;1.40;;
13741;SDS011;8461;52.356;10.704;2022-12-24T15:43:26;4.40;;;2.80;;
13741;SDS011;8461;52.356;10.704;2022-12-24T15:45:52;5.90;;;1.93;;
13741;SDS011;8461;52.356;10.704;2022-12-24T15:48:25;4.00;;;2.23;;
13741;SDS011;8461;52.356;10.704;2022-12-24T15:51:00;4.67;;;1.67;;
13741;SDS011;8461;52.356;10.704;2022-12-24T15:53:32;6.77;;;1.57;;
13741;SDS011;8461;52.356;10.704;2022-12-24T15:56:04;2.30;;;1.40;;
13741;SDS011;8461;52.356;10.704;2022-12-24T15:58:42;3.93;;;2.03;;
13741;SDS011;8461;52.356;10.704;2022-12-24T16:03:58;7.53;;;2.17;;
13741;SDS011;8461;52.356;10.704;2022-12-24T16:06:24;6.70;;;2.23;;
13741;SDS011;8461;52.356;10.704;2022-12-24T16:08:51;6.40;;;2.50;;
13741;SDS011;8461;52.356;10.704;2022-12-24T16:14:05;3.90;;;1.73;;
13741;SDS011;8461;52.356;10.704;2022-12-24T16:16:47;6.73;;;2.03;;
13741;SDS011;8461;52.356;10.704;2022-12-24T16:19:19;6.50;;;2.20;;
13741;SDS011;8461;52.356;10.704;2022-12-24T16:21:57;8.50;;;2.03;;
13741;SDS011;8461;52.356;10.704;2022-12-24T16:24:46;6.40;;;2.27;;
13741;SDS011;8461;52.356;10.704;2022-12-24T16:27:12;3.77;;;1.93;;
13741;SDS011;8461;52.356;10.704;2022-12-24T16:29:38;4.63;;;2.07;;
13741;SDS011;8461;52.356;10.704;2022-12-24T16:32:04;3.97;;;1.90;;
13741;SDS011;8461;52.356;10.704;2022-12-24T16:34:30;35.37;;;18.00;;
13741;SDS011;8461;52.356;10.704;2022-12-24T16:36:56;3.97;;;1.90;;
13741;SDS011;8461;52.356;10.704;2022-12-24T16:39:24;5.30;;;2.00;;
13741;SDS011;8461;52.356;10.704;2022-12-24T16:41:56;7.17;;;1.97;;